Time;durP1;ratioP1;P1;durP2;ratioP2;P2;SDS_P1;SDS_P2;PMS_P1;PMS_P2;Temp;Humidity;BMP_temperature;BMP_pressure;BME280_temperature;BME280_humidity;BME280_pressure;Samples;Min_cycle;Max_cycle;Signal;HPM_P1;HPM_P2
2023/10/07 00:00:24;;;;;;;0.00;0.00;;;;;;;16.99;100.00;102081.97;5111374;28;20028;-43
2023/10/07 00:02:50;;;;;;;0.00;0.00;;;;;;;17.04;100.00;102074.06;5116948;27;20039;-46
2023/10/07 00:05:16;;;;;;;0.00;0.00;;;;;;;17.07;100.00;102074.50;5117864;27;20110;-43
2023/10/07 00:07:45;;;;;;;0.00;0.00;;;;;;;17.10;100.00;102065.13;5110375;28;20031;-42
2023/10/07 00:10:15;;;;;;;0.00;0.00;;;;;;;17.14;100.00;102058.25;5109893;28;20465;-45
2023/10/07 00:12:40;;;;;;;0.00;0.00;;;;;;;17.15;100.00;102056.38;5101928;28;20075;-44
2023/10/07 00:15:11;;;;;;;0.00;0.00;;;;;;;17.17;100.00;102054.28;5090986;28;20040;-44
2023/10/07 00:17:42;;;;;;;0.00;0.00;;;;;;;17.19;100.00;102047.59;5108064;28;20085;-43
2023/10/07 00:20:10;;;;;;;0.00;0.00;;;;;;;17.23;100.00;102046.19;5119537;27;20111;-45
2023/10/07 00:22:40;;;;;;;0.00;0.00;;;;;;;17.20;100.00;102029.41;5113204;27;20126;-44
2023/10/07 00:25:07;;;;;;;0.00;0.00;;;;;;;17.19;100.00;102031.28;5109962;28;20092;-44
2023/10/07 00:27:38;;;;;;;0.00;0.00;;;;;;;17.19;100.00;102028.56;5108833;28;20096;-44
2023/10/07 00:30:12;;;;;;;0.00;0.00;;;;;;;17.18;100.00;102029.59;5109923;27;20039;-45
2023/10/07 00:32:38;;;;;;;0.00;0.00;;;;;;;17.21;100.00;102020.22;5103972;28;20027;-43
2023/10/07 00:35:06;;;;;;;0.00;0.00;;;;;;;17.18;100.00;102026.06;5091639;28;20103;-46
2023/10/07 00:37:35;;;;;;;0.00;0.00;;;;;;;17.16;100.00;102037.13;5111514;28;20056;-45
2023/10/07 00:40:30;;;;;;;0.00;0.00;;;;;;;17.17;100.00;102036.09;5111435;28;20390;-47
2023/10/07 00:42:56;;;;;;;0.00;0.00;;;;;;;17.17;100.00;102046.97;5111160;28;20150;-45
2023/10/07 00:45:24;;;;;;;0.00;0.00;;;;;;;17.17;100.00;102052.41;5111312;28;20430;-47
2023/10/07 00:47:53;;;;;;;0.00;0.00;;;;;;;17.17;100.00;102046.97;5110947;28;20409;-48
2023/10/07 00:50:24;;;;;;;0.00;0.00;;;;;;;17.19;100.00;102042.16;5111411;28;20028;-45
2023/10/07 00:52:56;;;;;;;0.00;0.00;;;;;;;17.21;100.00;102040.09;5092950;28;20487;-44
2023/10/07 00:55:35;;;;;;;0.00;0.00;;;;;;;17.19;100.00;102052.19;5110890;28;20034;-45
2023/10/07 00:58:08;;;;;;;0.00;0.00;;;;;;;17.19;100.00;102050.31;5111146;28;20028;-45
2023/10/07 01:00:49;;;;;;;0.00;0.00;;;;;;;17.21;100.00;102056.41;5111322;28;20024;-46
2023/10/07 01:06:07;;;;;;;0.00;0.00;;;;;;;17.20;100.00;102057.47;5122024;27;20031;-46
2023/10/07 01:08:41;;;;;;;0.00;0.00;;;;;;;17.20;100.00;102057.47;5110751;28;20035;-43
2023/10/07 01:11:29;;;;;;;0.00;0.00;;;;;;;17.21;100.00;102061.84;5111323;28;20359;-44
2023/10/07 01:13:59;;;;;;;0.00;0.00;;;;;;;17.19;100.00;102061.19;5110842;28;20028;-46
2023/10/07 01:16:40;;;;;;;0.00;0.00;;;;;;;17.20;100.00;102057.47;5110222;28;20043;-45
2023/10/07 01:22:31;;;;;;;0.00;0.00;;;;;;;17.22;100.00;102058.13;5111250;28;20036;-45
2023/10/07 01:27:19;;;;;;;0.00;0.00;;;;;;;17.18;100.00;102051.38;5112840;28;20538;-44
2023/10/07 01:29:48;;;;;;;0.00;0.00;;;;;;;17.18;100.00;102048.66;5109784;28;20138;-46
2023/10/07 01:32:15;;;;;;;0.00;0.00;;;;;;;17.18;100.00;102045.09;5109252;28;20028;-45
2023/10/07 01:34:47;;;;;;;0.00;0.00;;;;;;;17.16;100.00;102039.84;5110263;28;20031;-44
2023/10/07 01:37:15;;;;;;;0.00;0.00;;;;;;;17.19;100.00;102050.31;5113937;28;20059;-44
2023/10/07 01:39:40;;;;;;;0.00;0.00;;;;;;;17.14;100.00;102052.81;5114092;28;20508;-46
2023/10/07 01:42:37;;;;;;;0.00;0.00;;;;;;;17.14;100.00;102047.38;5113700;28;20020;-45
2023/10/07 01:45:22;;;;;;;0.00;0.00;;;;;;;17.15;100.00;102043.59;5101075;28;20078;-49
2023/10/07 01:47:49;;;;;;;0.00;0.00;;;;;;;17.17;100.00;102046.97;5113108;28;20027;-47
2023/10/07 01:50:18;;;;;;;0.00;0.00;;;;;;;17.18;100.00;102050.53;5113563;28;20100;-44
2023/10/07 01:52:49;;;;;;;0.00;0.00;;;;;;;17.17;100.00;102044.25;5113853;28;20114;-43
2023/10/07 01:55:15;;;;;;;0.00;0.00;;;;;;;17.17;100.00;102046.97;5113242;28;20031;-46
2023/10/07 01:57:41;;;;;;;0.00;0.00;;;;;;;17.15;100.00;102049.03;5113828;28;20020;-45
2023/10/07 02:00:11;;;;;;;0.00;0.00;;;;;;;17.16;100.00;102045.28;5113848;28;20102;-43
2023/10/07 02:02:43;;;;;;;0.00;0.00;;;;;;;17.12;100.00;102044.00;5093808;28;20051;-46
2023/10/07 02:05:12;;;;;;;0.00;0.00;;;;;;;17.11;100.00;102045.88;5109882;28;20042;-45
2023/10/07 02:07:37;;;;;;;0.00;0.00;;;;;;;17.14;100.00;102049.22;5113085;28;20473;-45
2023/10/07 02:10:03;;;;;;;0.00;0.00;;;;;;;17.14;100.00;102049.22;5113719;28;20028;-46
2023/10/07 02:12:32;;;;;;;0.00;0.00;;;;;;;17.11;100.00;102047.75;5112066;28;20024;-48
2023/10/07 02:15:03;;;;;;;0.00;0.00;;;;;;;17.13;100.00;102044.84;5112718;28;20027;-46
2023/10/07 02:17:28;;;;;;;0.00;0.00;;;;;;;17.12;100.00;102041.28;5112691;28;20031;-43
2023/10/07 02:19:54;;;;;;;0.00;0.00;;;;;;;17.10;100.00;102046.91;5114449;28;20072;-47
2023/10/07 02:22:27;;;;;;;0.00;0.00;;;;;;;17.11;100.00;102050.47;5113381;28;20032;-44
2023/10/07 02:25:04;;;;;;;0.00;0.00;;;;;;;17.07;100.00;102054.63;5112990;28;20032;-47
2023/10/07 02:27:42;;;;;;;0.00;0.00;;;;;;;17.09;100.00;102041.69;5112612;28;20036;-45
2023/10/07 02:30:19;;;;;;;0.00;0.00;;;;;;;17.08;100.00;102042.69;5094314;28;20036;-46
2023/10/07 02:32:46;;;;;;;0.00;0.00;;;;;;;17.06;100.00;102044.75;5093985;28;20093;-43
2023/10/07 02:35:17;;;;;;;0.00;0.00;;;;;;;17.05;100.00;102032.22;5109181;28;20024;-45
2023/10/07 02:37:49;;;;;;;0.00;0.00;;;;;;;17.07;100.00;102035.59;5112739;28;20027;-45
2023/10/07 02:40:22;;;;;;;0.00;0.00;;;;;;;17.07;100.00;102035.59;5113116;28;20041;-44
2023/10/07 02:42:48;;;;;;;0.00;0.00;;;;;;;17.06;100.00;102033.88;5113026;28;20027;-45
2023/10/07 02:45:24;;;;;;;0.00;0.00;;;;;;;17.08;100.00;102031.81;5112068;28;20523;-44
2023/10/07 02:47:50;;;;;;;0.00;0.00;;;;;;;17.09;100.00;102030.81;5112013;28;20084;-47
2023/10/07 02:50:17;;;;;;;0.00;0.00;;;;;;;17.07;100.00;102030.16;5113463;28;20020;-47
2023/10/07 02:52:45;;;;;;;0.00;0.00;;;;;;;17.09;100.00;102033.53;5109263;28;20020;-45
2023/10/07 02:55:27;;;;;;;0.00;0.00;;;;;;;17.13;100.00;102023.06;5106250;28;20088;-46
2023/10/07 02:57:56;;;;;;;0.00;0.00;;;;;;;17.11;100.00;102026.84;5113239;28;20474;-45
2023/10/07 03:00:49;;;;;;;0.00;0.00;;;;;;;17.13;100.00;102029.34;5113402;28;20020;-45
2023/10/07 03:05:46;;;;;;;0.00;0.00;;;;;;;17.11;100.00;102037.72;5113062;28;20503;-47
2023/10/07 03:08:21;;;;;;;0.00;0.00;;;;;;;17.10;100.00;102037.91;5113124;28;20647;-46
2023/10/07 03:11:03;;;;;;;0.00;0.00;;;;;;;17.11;100.00;102036.84;5110917;28;20466;-44
2023/10/07 03:13:29;;;;;;;0.00;0.00;;;;;;;17.10;100.00;102035.19;5111588;28;20039;-45
2023/10/07 03:16:59;;;;;;;0.00;0.00;;;;;;;17.09;100.00;102038.97;5110598;28;20027;-46
2023/10/07 03:21:22;;;;;;;0.00;0.00;;;;;;;17.07;100.00;102035.59;5111033;28;20035;-43
2023/10/07 03:23:47;;;;;;;0.00;0.00;;;;;;;17.06;100.00;102039.31;5109224;28;20034;-46
2023/10/07 03:26:17;;;;;;;0.00;0.00;;;;;;;17.07;100.00;102035.59;5110671;28;20036;-47
2023/10/07 03:29:04;;;;;;;0.00;0.00;;;;;;;17.07;100.00;102019.28;5110455;28;20148;-47
2023/10/07 03:31:47;;;;;;;0.00;0.00;;;;;;;17.08;100.00;102020.94;5092928;28;20155;-44
2023/10/07 03:34:13;;;;;;;0.00;0.00;;;;;;;17.10;100.00;102029.75;5111037;28;20432;-47
2023/10/07 03:36:41;;;;;;;0.00;0.00;;;;;;;17.09;100.00;102025.38;5110584;28;20089;-44
2023/10/07 03:41:35;;;;;;;0.00;0.00;;;;;;;17.08;100.00;102029.09;5110631;28;19915;-48
2023/10/07 03:44:04;;;;;;;0.00;0.00;;;;;;;17.09;100.00;102036.25;5110451;28;20100;-46
2023/10/07 03:46:29;;;;;;;0.00;0.00;;;;;;;17.07;100.00;102025.53;5074066;28;20028;-50
2023/10/07 03:48:55;;;;;;;0.00;0.00;;;;;;;17.08;100.00;102032.66;5110574;28;20492;-44
2023/10/07 03:51:22;;;;;;;0.00;0.00;;;;;;;17.09;100.00;102037.06;5110051;28;20028;-49
2023/10/07 03:53:49;;;;;;;0.00;0.00;;;;;;;17.08;100.00;102034.53;5105816;28;20089;-44
2023/10/07 03:56:15;;;;;;;0.00;0.00;;;;;;;17.09;100.00;102033.53;5121876;27;20032;-47
2023/10/07 03:58:43;;;;;;;0.00;0.00;;;;;;;17.09;100.00;102025.38;5108478;28;20053;-48
2023/10/07 04:01:19;;;;;;;0.00;0.00;;;;;;;17.10;100.00;102018.88;5119100;27;20432;-41
2023/10/07 04:03:49;;;;;;;0.00;0.00;;;;;;;17.12;100.00;102016.81;5108868;28;20077;-46
2023/10/07 04:06:19;;;;;;;0.00;0.00;;;;;;;17.11;100.00;102009.66;5090899;28;20077;-45
2023/10/07 04:08:52;;;;;;;0.00;0.00;;;;;;;17.08;100.00;101999.19;5102712;28;20055;-44
2023/10/07 04:11:25;;;;;;;0.00;0.00;;;;;;;17.06;100.00;102010.28;5074693;28;20039;-44
2023/10/07 04:13:53;;;;;;;0.00;0.00;;;;;;;17.04;100.00;102008.78;5107476;27;20394;-47
2023/10/07 04:16:29;;;;;;;;;;;;;;;17.03;100.00;102005.19;5110269;28;20454;-44
2023/10/07 04:19:06;;;;;;;0.00;0.00;;;;;;;17.04;100.00;102003.34;5109596;28;20043;-41
2023/10/07 04:21:41;;;;;;;0.00;0.00;;;;;;;17.06;100.00;102004.84;5109704;28;20031;-45
2023/10/07 04:24:11;;;;;;;0.00;0.00;;;;;;;17.05;100.00;102005.00;5107889;28;20070;-45
2023/10/07 04:26:40;;;;;;;0.00;0.00;;;;;;;17.01;100.00;102004.59;5109705;28;20393;-47
2023/10/07 04:29:14;;;;;;;0.00;0.00;;;;;;;16.98;100.00;102004.13;5109638;28;20432;-46
2023/10/07 04:31:47;;;;;;;0.00;0.00;;;;;;;16.98;100.00;101999.53;5109778;28;20111;-45
2023/10/07 04:34:15;;;;;;;0.00;0.00;;;;;;;16.96;100.00;102000.78;5109447;28;20098;-46
2023/10/07 04:39:28;;;;;;;0.00;0.00;;;;;;;16.88;100.00;101994.44;5109389;28;20438;-45
2023/10/07 04:42:03;;;;;;;0.00;0.00;;;;;;;16.86;100.00;101999.22;5109158;28;20037;-44
2023/10/07 04:45:16;;;;;;;0.00;0.00;;;;;;;16.82;100.00;101989.75;5109317;28;20497;-49
2023/10/07 04:47:34;;;;;;;0.00;0.00;;;;;;;16.82;100.00;101994.34;5109060;28;20047;-45
2023/10/07 04:52:32;;;;;;;0.00;0.00;;;;;;;16.80;100.00;101988.28;5088917;28;20059;-47
2023/10/07 04:54:58;;;;;;;0.00;0.00;;;;;;;16.82;100.00;101989.75;5108817;28;20040;-43
2023/10/07 04:57:56;;;;;;;0.00;0.00;;;;;;;16.83;100.00;101983.28;5108148;28;20035;-43
2023/10/07 05:02:57;;;;;;;0.00;0.00;;;;;;;16.86;100.00;101991.06;5097945;28;20482;-46
2023/10/07 05:05:29;;;;;;;0.00;0.00;;;;;;;16.86;100.00;101990.22;5090582;28;20420;-45
2023/10/07 05:08:10;;;;;;;0.00;0.00;;;;;;;16.85;100.00;101994.81;5091007;28;20061;-51
2023/10/07 05:10:39;;;;;;;0.00;0.00;;;;;;;16.88;100.00;102005.31;5107996;28;20461;-43
2023/10/07 05:13:07;;;;;;;0.00;0.00;;;;;;;16.88;100.00;102005.31;5108251;28;20104;-42
2023/10/07 05:15:34;;;;;;;0.00;0.00;;;;;;;16.91;100.00;102023.09;5105654;28;20109;-46
2023/10/07 05:18:01;;;;;;;0.00;0.00;;;;;;;16.91;100.00;102025.81;5101559;28;20023;-45
2023/10/07 05:20:28;;;;;;;0.00;0.00;;;;;;;16.92;100.00;102007.63;5103609;28;20036;-44
2023/10/07 05:22:54;;;;;;;0.00;0.00;;;;;;;16.91;100.00;102011.41;5107567;28;20058;-43
2023/10/07 05:25:21;;;;;;;0.00;0.00;;;;;;;16.89;100.00;102006.97;5105945;28;20440;-47
2023/10/07 05:27:47;;;;;;;0.00;0.00;;;;;;;16.91;100.00;102000.50;5104622;28;20588;-45
2023/10/07 05:30:15;;;;;;;0.00;0.00;;;;;;;16.88;100.00;102010.75;5107690;28;20508;-43
2023/10/07 05:32:41;;;;;;;0.00;0.00;;;;;;;16.88;100.00;102008.03;5099366;28;20430;-46
2023/10/07 05:35:08;;;;;;;0.00;0.00;;;;;;;16.89;100.00;102012.41;5107716;28;20024;-45
2023/10/07 05:37:33;;;;;;;0.00;0.00;;;;;;;16.88;100.00;102016.19;5108314;28;20027;-45
2023/10/07 05:39:59;;;;;;;0.00;0.00;;;;;;;16.87;100.00;102030.78;5104918;28;20032;-45
2023/10/07 05:42:25;;;;;;;0.00;0.00;;;;;;;16.86;100.00;102025.56;5108691;28;20031;-46
2023/10/07 05:44:52;;;;;;;0.00;0.00;;;;;;;16.85;100.00;102024.72;5107243;28;20342;-46
2023/10/07 05:47:18;;;;;;;0.00;0.00;;;;;;;16.85;100.00;102023.88;5108841;28;20039;-42
2023/10/07 05:49:43;;;;;;;0.00;0.00;;;;;;;16.86;100.00;102012.81;5100245;28;20032;-44
2023/10/07 05:52:09;;;;;;;0.00;0.00;;;;;;;16.85;100.00;102016.56;5108513;28;20110;-45
2023/10/07 05:54:34;;;;;;;0.00;0.00;;;;;;;16.86;100.00;102012.81;5101443;28;20493;-48
2023/10/07 05:57:01;;;;;;;0.00;0.00;;;;;;;16.88;100.00;102012.63;5100967;28;20115;-47
2023/10/07 05:59:32;;;;;;;0.00;0.00;;;;;;;16.88;100.00;102009.91;5105810;28;20600;-45
2023/10/07 06:02:01;;;;;;;0.00;0.00;;;;;;;16.89;100.00;102009.69;5107211;28;20074;-44
2023/10/07 06:04:28;;;;;;;0.00;0.00;;;;;;;16.92;100.00;102011.19;5106091;28;20539;-45
2023/10/07 06:06:53;;;;;;;0.00;0.00;;;;;;;16.92;100.00;102010.34;5106929;28;20135;-46
2023/10/07 06:09:21;;;;;;;0.00;0.00;;;;;;;16.94;100.00;102013.72;5102414;28;20106;-46
2023/10/07 06:11:48;;;;;;;0.00;0.00;;;;;;;16.96;100.00;102027.97;5101061;28;20043;-47
2023/10/07 06:14:14;;;;;;;0.00;0.00;;;;;;;16.93;100.00;102015.59;5098305;28;20035;-46
2023/10/07 06:16:39;;;;;;;0.00;0.00;;;;;;;16.92;100.00;102007.63;5105218;28;20020;-46
2023/10/07 06:19:07;;;;;;;0.00;0.00;;;;;;;16.87;100.00;102003.59;5110312;28;20028;-45
2023/10/07 06:21:32;;;;;;;0.00;0.00;;;;;;;16.87;100.00;101994.59;5104135;28;20039;-45
2023/10/07 06:23:58;;;;;;;0.00;0.00;;;;;;;16.86;100.00;101982.91;5103255;28;20027;-48
2023/10/07 06:26:24;;;;;;;0.00;0.00;;;;;;;16.88;100.00;101980.00;5103346;28;20035;-44
2023/10/07 06:28:50;;;;;;;0.00;0.00;;;;;;;16.88;100.00;101986.25;5104166;28;20023;-48
2023/10/07 06:31:34;;;;;;;0.00;0.00;;;;;;;16.88;100.00;101994.44;5105572;28;20358;-48
2023/10/07 06:33:59;;;;;;;0.00;0.00;;;;;;;16.87;100.00;101998.16;5110316;28;20063;-46
2023/10/07 06:36:32;;;;;;;0.00;0.00;;;;;;;16.94;100.00;101997.41;5109899;28;20050;-45
2023/10/07 06:39:07;;;;;;;0.00;0.00;;;;;;;16.94;100.00;102002.84;5110677;28;20030;-45
2023/10/07 06:41:33;;;;;;;0.00;0.00;;;;;;;16.91;100.00;102004.06;5113243;28;20382;-46
2023/10/07 06:43:59;;;;;;;0.00;0.00;;;;;;;16.88;100.00;102020.78;5103052;28;20016;-43
2023/10/07 06:46:46;;;;;;;0.00;0.00;;;;;;;16.86;100.00;102029.13;5085702;28;20028;-49
2023/10/07 06:49:17;;;;;;;0.00;0.00;;;;;;;16.88;100.00;102048.81;5111426;28;20096;-45
2023/10/07 06:51:44;;;;;;;0.00;0.00;;;;;;;16.86;100.00;102039.16;5112980;28;20027;-45
2023/10/07 06:54:09;;;;;;;0.00;0.00;;;;;;;16.88;100.00;102042.53;5112431;28;20520;-48
2023/10/07 06:56:35;;;;;;;0.00;0.00;;;;;;;16.93;100.00;102034.63;5113773;28;20047;-45
2023/10/07 06:59:00;;;;;;;0.00;0.00;;;;;;;17.06;100.00;102040.19;5109281;28;20019;-45
2023/10/07 07:04:10;;;;;;;0.00;0.00;;;;;;;17.16;100.00;102044.44;5112049;28;20423;-44
2023/10/07 07:06:43;;;;;;;0.00;0.00;;;;;;;17.14;100.00;102050.09;5112940;28;20032;-46
2023/10/07 07:11:59;;;;;;;0.00;0.00;;;;;;;17.20;100.00;102052.03;5109558;28;20445;-45
2023/10/07 07:14:28;;;;;;;0.00;0.00;;;;;;;17.18;100.00;102053.25;5110244;28;20110;-44
2023/10/07 07:16:57;;;;;;;0.00;0.00;;;;;;;17.23;100.00;102061.66;5113231;28;20027;-43
2023/10/07 07:19:23;;;;;;;0.00;0.00;;;;;;;17.28;100.00;102070.91;5113199;28;20023;-43
2023/10/07 07:21:50;;;;;;;0.00;0.00;;;;;;;17.38;100.00;102067.00;5112176;28;20526;-44
2023/10/07 07:24:22;;;;;;;0.00;0.00;;;;;;;17.43;100.00;102070.84;5111946;28;20062;-44
2023/10/07 07:26:52;;;;;;;0.00;0.00;;;;;;;17.64;100.00;102066.38;5113073;28;20664;-43
2023/10/07 07:29:23;;;;;;;0.00;0.00;;;;;;;17.78;100.00;102069.00;5112976;28;20445;-46
2023/10/07 07:31:49;;;;;;;0.00;0.00;;;;;;;18.01;100.00;102069.75;5113013;28;20024;-47
2023/10/07 07:34:27;;;;;;;0.00;0.00;;;;;;;18.26;100.00;102070.09;5110350;28;20031;-43
2023/10/07 07:37:01;;;;;;;0.00;0.00;;;;;;;18.53;100.00;102060.97;5111791;28;20027;-45
2023/10/07 07:39:30;;;;;;;0.00;0.00;;;;;;;19.22;100.00;102057.16;5112573;28;20241;-44
2023/10/07 07:41:55;;;;;;;0.00;0.00;;;;;;;19.71;100.00;102047.66;5112557;28;20103;-45
2023/10/07 07:44:32;;;;;;;0.00;0.00;;;;;;;20.20;100.00;102036.38;5111297;28;20127;-46
2023/10/07 07:47:02;;;;;;;0.00;0.00;;;;;;;20.47;100.00;102026.97;5109897;28;20044;-44
2023/10/07 07:49:31;;;;;;;0.00;0.00;;;;;;;20.38;100.00;102010.00;5118347;27;20421;-43
2023/10/07 07:52:01;;;;;;;0.00;0.00;;;;;;;20.54;100.00;102013.31;5113185;28;20409;-43
2023/10/07 07:54:26;;;;;;;0.00;0.00;;;;;;;20.90;100.00;102009.88;5113376;28;20027;-45
2023/10/07 07:56:54;;;;;;;0.00;0.00;;;;;;;21.35;100.00;102006.13;5113417;28;20081;-44
2023/10/07 07:59:20;;;;;;;0.00;0.00;;;;;;;21.06;100.00;102011.22;5112584;28;20024;-47
2023/10/07 08:01:53;;;;;;;0.00;0.00;;;;;;;20.99;100.00;102008.56;5112124;28;20669;-43
2023/10/07 08:04:20;;;;;;;0.00;0.00;;;;;;;21.37;100.00;102004.84;5112014;28;20034;-47
2023/10/07 08:06:49;;;;;;;0.00;0.00;;;;;;;21.68;100.00;102019.53;5111446;28;20106;-45
2023/10/07 08:09:19;;;;;;;0.00;0.00;;;;;;;22.11;100.00;102026.81;5112143;28;20077;-45
2023/10/07 08:11:45;;;;;;;0.00;0.00;;;;;;;22.01;100.00;102024.63;5112241;28;20027;-42
2023/10/07 08:14:10;;;;;;;0.00;0.00;;;;;;;22.09;100.00;102018.84;5111825;28;20663;-43
2023/10/07 08:16:51;;;;;;;0.00;0.00;;;;;;;21.76;100.00;102012.91;5111650;28;20069;-43
2023/10/07 08:19:20;;;;;;;0.00;0.00;;;;;;;22.55;100.00;102024.78;5112112;28;20028;-47
2023/10/07 08:21:51;;;;;;;0.00;0.00;;;;;;;22.67;100.00;102016.56;5111942;28;20107;-45
2023/10/07 08:24:20;;;;;;;0.00;0.00;;;;;;;22.40;100.00;102014.22;5111688;28;20023;-42
2023/10/07 08:26:48;;;;;;;0.00;0.00;;;;;;;22.53;100.00;102024.16;5111630;28;20035;-46
2023/10/07 08:29:53;;;;;;;0.00;0.00;;;;;;;22.78;100.00;102022.09;5111729;28;20019;-47
2023/10/07 08:32:48;;;;;;;0.00;0.00;;;;;;;23.06;100.00;102019.78;5106596;28;20392;-42
2023/10/07 08:34:59;;;;;;;0.00;0.00;;;;;;;23.18;100.00;102015.16;5102680;28;20427;-47
2023/10/07 08:37:32;;;;;;;0.00;0.00;;;;;;;22.80;100.00;102013.63;5111409;28;20019;-48
2023/10/07 08:39:57;;;;;;;0.00;0.00;;;;;;;22.91;100.00;102010.09;5111569;28;20115;-42
2023/10/07 08:42:26;;;;;;;0.00;0.00;;;;;;;22.50;100.00;102019.97;5111385;28;20033;-45
2023/10/07 08:44:54;;;;;;;0.00;0.00;;;;;;;22.64;100.00;102025.28;5092943;28;20445;-43
2023/10/07 08:47:21;;;;;;;0.00;0.00;;;;;;;23.09;100.00;102027.56;5111444;28;20016;-46
2023/10/07 08:49:48;;;;;;;0.00;0.00;;;;;;;23.09;100.00;102028.41;5093415;28;20027;-47
2023/10/07 08:52:16;;;;;;;0.00;0.00;;;;;;;23.25;100.00;102054.34;5092937;28;20031;-48
2023/10/07 08:54:44;;;;;;;0.00;0.00;;;;;;;22.80;100.00;102041.06;5111503;28;20032;-44
2023/10/07 08:57:16;;;;;;;0.00;0.00;;;;;;;22.75;100.00;102030.00;5110943;28;20024;-44
2023/10/07 08:59:43;;;;;;;0.00;0.00;;;;;;;22.28;100.00;102027.06;5111258;28;20051;-44
2023/10/07 09:02:23;;;;;;;0.00;0.00;;;;;;;22.08;100.00;102027.28;5092760;28;20036;-45
2023/10/07 09:04:50;;;;;;;0.00;0.00;;;;;;;21.99;100.00;102017.72;5110690;28;20585;-44
2023/10/07 09:07:20;;;;;;;0.00;0.00;;;;;;;21.66;100.00;102019.75;5111103;28;20053;-48
2023/10/07 09:09:46;;;;;;;0.00;0.00;;;;;;;21.36;100.00;102018.78;5111102;28;20055;-47
2023/10/07 09:12:38;;;;;;;0.00;0.00;;;;;;;21.19;100.00;102013.84;5111095;28;20032;-45
2023/10/07 09:14:59;;;;;;;0.00;0.00;;;;;;;20.84;100.00;102010.78;5110222;28;20141;-45
2023/10/07 09:17:29;;;;;;;0.00;0.00;;;;;;;20.82;100.00;102002.78;5110687;28;20038;-45
2023/10/07 09:19:58;;;;;;;0.00;0.00;;;;;;;20.76;100.00;102002.84;5111547;28;20124;-44
2023/10/07 09:22:27;;;;;;;0.00;0.00;;;;;;;20.85;100.00;101997.94;5110742;28;20023;-48
2023/10/07 09:25:08;;;;;;;0.00;0.00;;;;;;;20.79;100.00;102016.06;5110922;28;20024;-45
2023/10/07 09:27:37;;;;;;;0.00;0.00;;;;;;;20.87;100.00;102015.81;5110736;28;20028;-43
2023/10/07 09:32:55;;;;;;;0.00;0.00;;;;;;;20.87;100.00;102031.38;5110828;28;20062;-47
2023/10/07 09:35:22;;;;;;;0.00;0.00;;;;;;;20.81;100.00;102044.06;5110832;28;20024;-44
2023/10/07 09:37:53;;;;;;;0.00;0.00;;;;;;;20.67;100.00;102037.84;5107783;28;20093;-44
2023/10/07 09:41:07;;;;;;;0.00;0.00;;;;;;;20.96;100.00;102058.28;5107325;28;20028;-43
2023/10/07 09:43:07;;;;;;;0.00;0.00;;;;;;;21.01;100.00;102052.09;5122839;28;20405;-45
2023/10/07 09:45:34;;;;;;;0.00;0.00;;;;;;;20.88;100.00;102057.69;5109491;28;20049;-46
2023/10/07 09:48:05;;;;;;;0.00;0.00;;;;;;;21.01;100.00;102061.19;5099191;28;20027;-46
2023/10/07 09:50:33;;;;;;;0.00;0.00;;;;;;;20.77;100.00;102065.56;5110626;28;20465;-46
2023/10/07 09:53:30;;;;;;;0.00;0.00;;;;;;;20.89;100.00;102060.22;5110394;28;20505;-45
2023/10/07 09:56:33;;;;;;;0.00;0.00;;;;;;;20.96;100.00;102068.38;5109038;28;20024;-45
2023/10/07 09:59:26;;;;;;;0.00;0.00;;;;;;;21.01;100.00;102049.38;5111575;27;20043;-46
2023/10/07 10:02:07;;;;;;;0.00;0.00;;;;;;;21.00;100.00;102051.28;5119047;27;20054;-47
2023/10/07 10:04:51;;;;;;;0.00;0.00;;;;;;;20.99;100.00;102038.66;5109314;28;20047;-44
2023/10/07 10:07:28;;;;;;;0.00;0.00;;;;;;;20.87;100.00;102037.69;5114369;28;20038;-43
2023/10/07 10:10:16;;;;;;;0.00;0.00;;;;;;;20.93;100.00;102033.22;5112652;27;20027;-47
2023/10/07 10:12:56;;;;;;;0.00;0.00;;;;;;;20.85;100.00;102028.03;5094594;28;20456;-45
2023/10/07 10:18:31;;;;;;;0.00;0.00;;;;;;;21.27;100.00;102030.00;5113316;28;20482;-45
2023/10/07 10:21:09;;;;;;;0.00;0.00;;;;;;;21.22;100.00;102046.28;5114949;27;20028;-42
2023/10/07 10:23:35;;;;;;;0.00;0.00;;;;;;;21.03;100.00;102033.56;5112250;28;20023;-45
2023/10/07 10:26:03;;;;;;;0.00;0.00;;;;;;;21.10;100.00;102039.00;5119922;27;20381;-41
2023/10/07 10:28:33;;;;;;;0.00;0.00;;;;;;;21.11;100.00;102040.66;5111277;28;20039;-41
2023/10/07 10:30:59;;;;;;;0.00;0.00;;;;;;;20.87;100.00;102059.59;5114195;28;20028;-44
2023/10/07 10:33:28;;;;;;;0.00;0.00;;;;;;;20.94;100.00;102054.06;5113966;28;20031;-43
2023/10/07 10:35:57;;;;;;;0.00;0.00;;;;;;;21.26;100.00;102049.41;5098260;28;20028;-47
2023/10/07 10:38:45;;;;;;;0.00;0.00;;;;;;;21.36;100.00;102057.09;5093112;28;20062;-44
2023/10/07 10:41:11;;;;;;;0.00;0.00;;;;;;;21.40;100.00;102070.13;5093632;28;20066;-47
2023/10/07 10:43:36;;;;;;;0.00;0.00;;;;;;;21.24;100.00;102055.06;5089784;28;20055;-47
2023/10/07 10:46:05;;;;;;;0.00;0.00;;;;;;;21.16;100.00;102066.31;5113671;28;20023;-45
2023/10/07 10:48:35;;;;;;;0.00;0.00;;;;;;;21.12;100.00;102077.94;5113731;28;20026;-43
2023/10/07 10:51:07;;;;;;;0.00;0.00;;;;;;;21.13;100.00;102074.97;5095354;28;20020;-44
2023/10/07 10:53:33;;;;;;;0.00;0.00;;;;;;;21.16;100.00;102077.25;5125628;27;20389;-46
2023/10/07 10:56:00;;;;;;;0.00;0.00;;;;;;;21.04;100.00;102079.06;5134918;27;20031;-43
2023/10/07 10:58:25;;;;;;;0.00;0.00;;;;;;;21.01;100.00;102079.47;5119012;27;20039;-43
2023/10/07 11:00:51;;;;;;;0.00;0.00;;;;;;;20.96;100.00;102071.13;5110491;28;20035;-45
2023/10/07 11:03:20;;;;;;;0.00;0.00;;;;;;;21.19;100.00;102071.34;5111203;28;20089;-47
2023/10/07 11:05:58;;;;;;;0.00;0.00;;;;;;;21.08;100.00;102061.13;5110072;28;20061;-47
2023/10/07 11:08:28;;;;;;;0.00;0.00;;;;;;;21.30;100.00;102063.47;5111989;28;20032;-46
2023/10/07 11:10:57;;;;;;;0.00;0.00;;;;;;;21.42;100.00;102072.66;5114439;27;20030;-46
2023/10/07 11:13:23;;;;;;;0.00;0.00;;;;;;;21.39;100.00;102076.69;5128453;27;20060;-45
2023/10/07 11:16:04;;;;;;;0.00;0.00;;;;;;;21.38;100.00;102075.03;5132579;27;20023;-47
2023/10/07 11:18:31;;;;;;;0.00;0.00;;;;;;;21.21;100.00;102069.22;5123888;27;20150;-45
2023/10/07 11:20:56;;;;;;;0.00;0.00;;;;;;;21.12;100.00;102084.25;5111036;28;20070;-42
2023/10/07 11:23:21;;;;;;;0.00;0.00;;;;;;;21.07;100.00;102075.03;5106286;28;20019;-44
2023/10/07 11:25:47;;;;;;;0.00;0.00;;;;;;;21.13;100.00;102072.25;5109408;28;20482;-42
2023/10/07 11:28:15;;;;;;;0.00;0.00;;;;;;;21.32;100.00;102077.78;5112682;28;20023;-44
2023/10/07 11:30:48;;;;;;;0.00;0.00;;;;;;;21.38;100.00;102063.22;5111343;28;20051;-45
2023/10/07 11:33:18;;;;;;;0.00;0.00;;;;;;;21.57;100.00;102070.44;5109365;28;20042;-45
2023/10/07 11:35:45;;;;;;;0.00;0.00;;;;;;;21.75;100.00;102083.31;5112163;28;20431;-46
2023/10/07 11:38:13;;;;;;;0.00;0.00;;;;;;;21.59;100.00;102084.75;5108685;28;20279;-45
2023/10/07 11:40:39;;;;;;;0.00;0.00;;;;;;;21.21;100.00;102077.44;5107823;28;20043;-47
2023/10/07 11:43:04;;;;;;;0.00;0.00;;;;;;;20.95;100.00;102083.09;5111727;28;20019;-42
2023/10/07 11:45:33;;;;;;;0.00;0.00;;;;;;;21.14;100.00;102076.63;5112487;28;20026;-45
2023/10/07 11:47:58;;;;;;;0.00;0.00;;;;;;;21.36;100.00;102079.84;5112463;28;20481;-49
2023/10/07 11:50:27;;;;;;;0.00;0.00;;;;;;;21.17;100.00;102089.03;5112355;28;20020;-47
2023/10/07 11:52:53;;;;;;;0.00;0.00;;;;;;;21.33;100.00;102088.53;5107208;28;20039;-45
2023/10/07 11:55:18;;;;;;;0.38;0.00;;;;;;;21.23;100.00;102086.28;5107220;28;20028;-43
2023/10/07 11:57:43;;;;;;;0.00;0.00;;;;;;;20.95;100.00;102097.63;5098050;27;20031;-45
2023/10/07 12:00:13;;;;;;;0.00;0.00;;;;;;;20.86;100.00;102095.41;5109349;28;20024;-46
2023/10/07 12:02:39;;;;;;;0.00;0.00;;;;;;;20.89;100.00;102095.78;5109678;28;20039;-45
2023/10/07 12:05:06;;;;;;;0.00;0.00;;;;;;;20.90;100.00;102093.88;5111209;28;20031;-45
2023/10/07 12:07:32;;;;;;;0.00;0.00;;;;;;;20.89;100.00;102094.94;5111915;28;20035;-48